createdAt,value
2022-10-17T00:00:22.604Z,61.91
2022-10-17T00:01:22.673Z,50.15
2022-10-17T00:02:22.584Z,50.28
2022-10-17T00:03:22.578Z,62.17
2022-10-17T00:04:22.606Z,61.79
2022-10-17T00:05:22.594Z,53.91
2022-10-17T00:06:22.621Z,59.89
2022-10-17T00:07:22.541Z,62.54
2022-10-17T00:08:22.582Z,46.89
2022-10-17T00:09:22.541Z,55.77
2022-10-17T00:10:22.550Z,45.86
2022-10-17T00:11:22.507Z,65.91
2022-10-17T00:12:22.505Z,49.10
2022-10-17T00:13:22.560Z,56.19
2022-10-17T00:14:22.490Z,52.23
2022-10-17T00:15:22.532Z,54.06
2022-10-17T00:16:22.491Z,50.34
2022-10-17T00:17:22.483Z,50.28
2022-10-17T00:18:22.453Z,37.67
2022-10-17T00:19:22.469Z,36.89
2022-10-17T00:20:23.460Z,40.67
2022-10-17T00:21:22.428Z,44.62
2022-10-17T00:22:22.411Z,57.09
2022-10-17T00:23:23.410Z,48.91
2022-10-17T00:24:22.404Z,47.72
2022-10-17T00:25:22.424Z,50.63
2022-10-17T00:26:22.378Z,57.30
2022-10-17T00:27:22.371Z,57.40
2022-10-17T00:28:22.387Z,43.22
2022-10-17T00:29:22.353Z,41.80
2022-10-17T00:30:22.383Z,58.57
2022-10-17T00:31:22.334Z,47.88
2022-10-17T00:32:22.321Z,37.12
2022-10-17T00:33:22.327Z,59.12
2022-10-17T00:34:22.312Z,47.38
2022-10-17T00:35:22.332Z,41.07
2022-10-17T00:36:22.295Z,51.50
2022-10-17T00:37:22.290Z,52.25
2022-10-17T00:38:22.275Z,62.83
2022-10-17T00:39:22.268Z,69.64
2022-10-17T00:40:22.289Z,55.40
2022-10-17T00:41:22.323Z,59.64
2022-10-17T00:42:22.241Z,56.12
2022-10-17T00:43:22.235Z,49.62
2022-10-17T00:44:22.234Z,47.23
2022-10-17T00:45:22.244Z,53.59
2022-10-17T00:46:22.203Z,49.32
2022-10-17T00:47:22.203Z,50.13
2022-10-17T00:48:23.324Z,43.64
2022-10-17T00:49:22.217Z,51.58
2022-10-17T00:50:22.215Z,67.52
2022-10-17T00:51:22.174Z,42.93
2022-10-17T00:52:22.161Z,41.24
2022-10-17T00:53:22.146Z,54.14
2022-10-17T00:54:22.151Z,42.45
2022-10-17T00:55:22.161Z,38.77
2022-10-17T00:56:22.129Z,37.74
2022-10-17T00:57:22.128Z,37.94
2022-10-17T00:58:22.120Z,49.87
2022-10-17T00:59:22.110Z,37.34
2022-10-17T01:00:22.121Z,53.00
2022-10-17T01:01:22.136Z,42.93
2022-10-17T01:02:22.088Z,53.90
2022-10-17T01:03:22.068Z,40.37
2022-10-17T01:04:22.065Z,47.64
2022-10-17T01:05:22.079Z,59.52
2022-10-17T01:06:22.041Z,56.71
2022-10-17T01:07:22.030Z,57.23
2022-10-17T01:08:22.024Z,58.61
2022-10-17T01:09:22.010Z,43.94
2022-10-17T01:11:21.988Z,52.53
2022-10-17T01:12:21.998Z,48.14
2022-10-17T01:13:21.975Z,57.26
2022-10-17T01:14:21.966Z,60.39
2022-10-17T01:15:21.998Z,44.53
2022-10-17T01:16:21.952Z,42.44
2022-10-17T01:17:21.938Z,49.02
2022-10-17T01:18:21.929Z,55.75
2022-10-17T01:19:21.999Z,54.99
2022-10-17T01:20:21.953Z,58.66
2022-10-17T01:21:21.911Z,55.76
2022-10-17T01:22:21.911Z,62.92
2022-10-17T01:23:21.890Z,64.19
2022-10-17T01:24:21.889Z,57.36
2022-10-17T01:25:21.898Z,40.02
2022-10-17T01:26:21.864Z,49.54
2022-10-17T01:27:21.863Z,44.21
2022-10-17T01:28:21.956Z,39.53
2022-10-17T01:29:21.839Z,50.18
2022-10-17T01:30:21.860Z,63.56
2022-10-17T01:31:21.822Z,58.33
2022-10-17T01:32:21.812Z,68.43
2022-10-17T01:33:21.801Z,61.56
2022-10-17T01:34:21.800Z,56.60
2022-10-17T01:35:21.811Z,49.85
2022-10-17T01:36:21.775Z,63.67
2022-10-17T01:37:21.766Z,57.17
2022-10-17T01:38:21.780Z,66.03
2022-10-17T01:39:21.746Z,65.72
2022-10-17T01:40:21.774Z,61.23
2022-10-17T01:41:21.731Z,53.47
2022-10-17T01:42:21.805Z,56.06
2022-10-17T01:43:21.714Z,59.02
2022-10-17T01:44:21.702Z,54.60
2022-10-17T01:45:21.766Z,58.86
2022-10-17T01:46:21.694Z,56.55
2022-10-17T01:47:21.689Z,39.23
2022-10-17T01:48:21.671Z,50.83
2022-10-17T01:49:21.668Z,63.92
2022-10-17T01:50:22.061Z,63.42
2022-10-17T01:51:21.649Z,46.57
2022-10-17T01:52:21.640Z,41.09
2022-10-17T01:53:21.635Z,54.23
2022-10-17T01:54:21.635Z,66.40
2022-10-17T01:55:21.611Z,51.93
2022-10-17T01:56:21.638Z,55.91
2022-10-17T01:57:21.602Z,53.86
2022-10-17T01:58:21.592Z,53.88
2022-10-17T01:59:21.585Z,46.70
2022-10-17T02:00:21.572Z,54.34
2022-10-17T02:01:21.669Z,50.76
2022-10-17T02:02:21.554Z,50.37
2022-10-17T02:03:21.551Z,58.73
2022-10-17T02:04:21.535Z,56.97
2022-10-17T02:05:21.534Z,65.56
2022-10-17T02:06:21.549Z,60.03
2022-10-17T02:07:21.517Z,48.62
2022-10-17T02:08:21.505Z,58.61
2022-10-17T02:09:21.506Z,48.00
2022-10-17T02:10:21.488Z,50.13
2022-10-17T02:11:21.508Z,59.76
2022-10-17T02:12:21.470Z,69.39
2022-10-17T02:13:21.465Z,57.17
2022-10-17T02:14:21.467Z,50.49
2022-10-17T02:15:21.450Z,63.72
2022-10-17T02:16:21.469Z,64.82
2022-10-17T02:17:21.428Z,61.50
2022-10-17T02:18:21.414Z,58.01
2022-10-17T02:19:22.417Z,48.38
2022-10-17T02:20:21.414Z,66.80
2022-10-17T02:21:21.432Z,57.95
2022-10-17T02:22:21.392Z,43.88
2022-10-17T02:23:21.380Z,49.93
2022-10-17T02:24:21.400Z,56.46
2022-10-17T02:25:21.364Z,59.62
2022-10-17T02:26:21.563Z,55.19
2022-10-17T02:27:21.343Z,62.69
2022-10-17T02:28:21.361Z,49.45
2022-10-17T02:29:21.329Z,61.04
2022-10-17T02:30:21.349Z,60.22
2022-10-17T02:31:21.331Z,55.43
2022-10-17T02:33:21.309Z,47.37
2022-10-17T02:34:21.287Z,55.86
2022-10-17T02:35:21.305Z,67.15
2022-10-17T02:36:21.272Z,56.30
2022-10-17T02:37:21.267Z,53.75
2022-10-17T02:38:21.259Z,53.14
2022-10-17T02:39:21.285Z,44.82
2022-10-17T02:40:21.247Z,61.77
2022-10-17T02:41:21.251Z,55.83
2022-10-17T02:42:21.223Z,62.00
2022-10-17T02:43:21.202Z,68.35
2022-10-17T02:44:21.201Z,63.62
2022-10-17T02:45:21.256Z,62.07
2022-10-17T02:46:21.258Z,54.01
2022-10-17T02:47:21.181Z,59.20
2022-10-17T02:48:21.164Z,57.29
2022-10-17T02:49:21.162Z,56.14
2022-10-17T02:50:21.207Z,62.58
2022-10-17T02:51:21.315Z,60.47
2022-10-17T02:52:21.384Z,57.72
2022-10-17T02:53:21.126Z,53.65
2022-10-17T02:54:21.114Z,67.49
2022-10-17T02:55:21.134Z,59.72
2022-10-17T02:56:21.101Z,54.77
2022-10-17T02:57:21.094Z,66.50
2022-10-17T02:58:21.072Z,55.57
2022-10-17T02:59:21.111Z,59.11
2022-10-17T03:00:21.560Z,65.72
2022-10-17T03:01:21.216Z,58.29
2022-10-17T03:02:21.045Z,64.20
2022-10-17T03:03:21.041Z,67.48
2022-10-17T03:04:21.123Z,64.16
2022-10-17T03:05:21.021Z,66.43
2022-10-17T03:06:21.014Z,61.93
2022-10-17T03:07:21.156Z,73.49
2022-10-17T03:08:21.000Z,60.07
2022-10-17T03:09:21.019Z,62.63
2022-10-17T03:10:20.975Z,63.59
2022-10-17T03:11:20.975Z,58.91
2022-10-17T03:12:20.956Z,63.42
2022-10-17T03:13:20.957Z,67.67
2022-10-17T03:14:20.983Z,64.87
2022-10-17T03:15:20.937Z,68.72
2022-10-17T03:16:20.934Z,66.06
2022-10-17T03:17:21.224Z,65.99
2022-10-17T03:18:20.914Z,66.28
2022-10-17T03:19:20.942Z,60.03
2022-10-17T03:20:20.900Z,66.29
2022-10-17T03:21:20.910Z,66.58
2022-10-17T03:22:20.882Z,63.54
2022-10-17T03:23:20.868Z,62.62
2022-10-17T03:24:20.858Z,64.58
2022-10-17T03:25:20.887Z,65.87
2022-10-17T03:26:20.841Z,57.08
2022-10-17T03:27:20.840Z,66.64
2022-10-17T03:28:20.893Z,66.07
2022-10-17T03:29:20.841Z,67.95
2022-10-17T03:30:20.813Z,62.92
2022-10-17T03:31:20.800Z,69.66
2022-10-17T03:32:20.813Z,69.52
2022-10-17T03:33:20.788Z,63.35
2022-10-17T03:34:20.810Z,56.88
2022-10-17T03:35:20.770Z,68.04
2022-10-17T03:36:20.795Z,67.16
2022-10-17T03:37:20.747Z,59.85
2022-10-17T03:38:20.744Z,65.48
2022-10-17T03:39:20.758Z,66.64
2022-10-17T03:40:20.723Z,59.96
2022-10-17T03:41:20.716Z,71.54
2022-10-17T03:42:20.715Z,71.95
2022-10-17T03:43:20.714Z,68.36
2022-10-17T03:44:20.741Z,63.26
2022-10-17T03:45:20.682Z,66.49
2022-10-17T03:46:20.748Z,70.22
2022-10-17T03:47:20.663Z,61.59
2022-10-17T03:48:21.737Z,68.43
2022-10-17T03:49:20.648Z,71.42
2022-10-17T03:50:20.667Z,64.56
2022-10-17T03:51:20.633Z,63.71
2022-10-17T03:52:20.620Z,65.91
2022-10-17T03:53:20.611Z,68.73
2022-10-17T03:54:20.608Z,69.35
2022-10-17T03:55:20.635Z,64.54
2022-10-17T03:56:20.595Z,65.63
2022-10-17T03:57:20.591Z,67.06
2022-10-17T03:58:20.582Z,64.83
2022-10-17T03:59:20.572Z,69.88
2022-10-17T04:00:20.586Z,70.42
2022-10-17T04:01:20.599Z,64.61
2022-10-17T04:02:20.542Z,67.92
2022-10-17T04:03:20.533Z,64.78
2022-10-17T04:04:20.565Z,67.33
2022-10-17T04:05:20.551Z,68.70
2022-10-17T04:06:20.504Z,67.23
2022-10-17T04:07:20.529Z,70.34
2022-10-17T04:08:20.491Z,69.55
2022-10-17T04:09:20.491Z,63.81
2022-10-17T04:10:20.506Z,67.11
2022-10-17T04:11:20.473Z,70.83
2022-10-17T04:12:20.464Z,66.31
2022-10-17T04:13:20.502Z,67.66
2022-10-17T04:14:20.575Z,68.31
2022-10-17T04:15:20.460Z,69.76
2022-10-17T04:16:21.424Z,61.93
2022-10-17T04:17:20.415Z,68.56
2022-10-17T04:18:20.411Z,69.28
2022-10-17T04:19:20.401Z,69.73
2022-10-17T04:20:20.473Z,68.07
2022-10-17T04:21:20.379Z,65.16
2022-10-17T04:22:20.377Z,72.01
2022-10-17T04:23:20.362Z,70.39
2022-10-17T04:24:20.362Z,68.36
2022-10-17T04:25:20.370Z,70.67
2022-10-17T04:26:20.355Z,68.68
2022-10-17T04:27:20.329Z,72.49
2022-10-17T04:28:20.374Z,69.70
2022-10-17T04:29:20.310Z,67.67
2022-10-17T04:30:20.340Z,72.38
2022-10-17T04:31:20.290Z,73.15
2022-10-17T04:32:20.280Z,64.53
2022-10-17T04:33:20.283Z,68.39
2022-10-17T04:34:20.286Z,64.68
2022-10-17T04:35:20.282Z,71.30
2022-10-17T04:36:20.249Z,73.07
2022-10-17T04:37:20.248Z,71.09
2022-10-17T04:38:21.949Z,71.50
2022-10-17T04:39:20.230Z,70.69
2022-10-17T04:40:20.252Z,70.56
2022-10-17T04:41:20.211Z,71.31
2022-10-17T04:42:20.240Z,70.85
2022-10-17T04:43:20.192Z,67.48
2022-10-17T04:44:20.189Z,71.84
2022-10-17T04:45:20.209Z,69.95
2022-10-17T04:46:20.165Z,69.04
2022-10-17T04:47:20.164Z,72.53
2022-10-17T04:48:20.189Z,71.44
2022-10-17T04:49:20.139Z,71.56
2022-10-17T04:50:20.154Z,71.43
2022-10-17T04:51:23.331Z,67.61
2022-10-17T04:52:20.117Z,65.11
2022-10-17T04:53:20.157Z,68.24
2022-10-17T04:54:20.118Z,69.42
2022-10-17T04:55:20.178Z,72.99
2022-10-17T04:56:20.084Z,72.92
2022-10-17T04:57:20.083Z,63.44
2022-10-17T04:58:20.071Z,68.12
2022-10-17T04:59:20.064Z,69.08
2022-10-17T05:00:20.089Z,70.39
2022-10-17T05:01:20.101Z,69.66
2022-10-17T05:02:20.036Z,70.99
2022-10-17T05:03:20.622Z,69.58
2022-10-17T05:04:22.457Z,73.21
2022-10-17T05:05:20.040Z,69.02
2022-10-17T05:06:19.994Z,68.81
2022-10-17T05:07:19.988Z,69.51
2022-10-17T05:08:19.972Z,72.66
2022-10-17T05:09:20.979Z,70.50
2022-10-17T05:10:20.008Z,71.13
2022-10-17T05:11:20.000Z,71.00
2022-10-17T05:12:19.949Z,64.35
2022-10-17T05:13:19.939Z,68.44
2022-10-17T05:14:19.934Z,72.82
2022-10-17T05:15:19.961Z,73.02
2022-10-17T05:16:19.914Z,70.09
2022-10-17T05:17:19.901Z,68.35
2022-10-17T05:18:19.896Z,69.30
2022-10-17T05:19:19.893Z,71.55
2022-10-17T05:20:19.920Z,70.85
2022-10-17T05:21:19.918Z,69.93
2022-10-17T05:22:19.856Z,68.82
2022-10-17T05:23:19.851Z,69.85
2022-10-17T05:24:19.882Z,70.75
2022-10-17T05:25:19.832Z,73.16
2022-10-17T05:26:19.867Z,70.65
2022-10-17T05:27:19.815Z,68.87
2022-10-17T05:28:19.807Z,70.61
2022-10-17T05:29:19.801Z,72.28
2022-10-17T05:30:19.790Z,71.04
2022-10-17T05:31:19.830Z,70.98
2022-10-17T05:32:19.769Z,63.00
2022-10-17T05:33:19.764Z,70.40
2022-10-17T05:34:19.769Z,70.34
2022-10-17T05:35:19.797Z,72.24
2022-10-17T05:36:19.747Z,72.09
2022-10-17T05:37:19.732Z,70.17
2022-10-17T05:38:19.739Z,68.56
2022-10-17T05:39:19.727Z,69.48
2022-10-17T05:40:19.759Z,69.15
2022-10-17T05:41:19.692Z,67.41
2022-10-17T05:42:19.769Z,66.80
2022-10-17T05:43:19.686Z,64.84
2022-10-17T05:44:19.678Z,70.50
2022-10-17T05:45:19.665Z,72.65
2022-10-17T05:46:19.689Z,73.49
2022-10-17T05:47:19.647Z,71.43
2022-10-17T05:48:19.648Z,70.94
2022-10-17T05:49:33.036Z,71.40
2022-10-17T05:50:21.627Z,70.63
2022-10-17T05:51:19.870Z,73.07
2022-10-17T05:52:20.607Z,64.45
2022-10-17T05:53:19.682Z,65.48
2022-10-17T05:54:19.588Z,69.14
2022-10-17T05:55:19.589Z,73.04
2022-10-17T05:56:19.674Z,71.10
2022-10-17T05:57:19.565Z,66.40
2022-10-17T05:58:22.069Z,67.43
2022-10-17T05:59:21.551Z,63.66
2022-10-17T06:00:19.564Z,70.27
2022-10-17T06:01:19.582Z,71.42
2022-10-17T06:02:19.639Z,64.21
2022-10-17T06:03:19.535Z,68.10
2022-10-17T06:04:19.529Z,69.77
2022-10-17T06:05:19.590Z,71.52
2022-10-17T06:06:19.520Z,71.09
2022-10-17T06:07:19.525Z,68.21
2022-10-17T06:08:19.490Z,68.78
2022-10-17T06:09:19.463Z,70.96
2022-10-17T06:10:19.465Z,71.52
2022-10-17T06:11:19.487Z,68.70
2022-10-17T06:12:19.448Z,68.40
2022-10-17T06:13:19.433Z,70.21
2022-10-17T06:14:19.419Z,61.23
2022-10-17T06:15:19.438Z,63.42
2022-10-17T06:16:19.446Z,72.59
2022-10-17T06:17:19.401Z,67.23
2022-10-17T06:18:19.397Z,73.66
2022-10-17T06:19:19.383Z,72.29
2022-10-17T06:20:19.375Z,68.75
2022-10-17T06:21:19.400Z,66.72
2022-10-17T06:22:19.359Z,68.80
2022-10-17T06:23:19.353Z,70.31
2022-10-17T06:24:19.338Z,67.40
2022-10-17T06:25:19.330Z,68.68
2022-10-17T06:26:19.357Z,69.61
2022-10-17T06:27:19.317Z,71.08
2022-10-17T06:28:19.487Z,69.56
2022-10-17T06:29:19.302Z,67.49
2022-10-17T06:30:19.288Z,65.28
2022-10-17T06:31:19.310Z,68.19
2022-10-17T06:32:19.278Z,68.14
2022-10-17T06:33:19.271Z,69.43
2022-10-17T06:34:19.291Z,66.92
2022-10-17T06:35:19.251Z,65.24
2022-10-17T06:36:19.270Z,70.46
2022-10-17T06:37:19.232Z,72.30
2022-10-17T06:38:19.229Z,66.64
2022-10-17T06:39:19.260Z,64.20
2022-10-17T06:40:19.196Z,65.96
2022-10-17T06:41:19.304Z,67.48
2022-10-17T06:42:19.187Z,70.56
2022-10-17T06:43:19.177Z,69.33
2022-10-17T06:44:19.162Z,69.41
2022-10-17T06:45:19.156Z,72.65
2022-10-17T06:46:19.222Z,66.34
2022-10-17T06:47:20.042Z,65.15
2022-10-17T06:48:20.138Z,70.92
2022-10-17T06:49:19.123Z,68.70
2022-10-17T06:50:19.233Z,68.94
2022-10-17T06:51:19.157Z,70.52
2022-10-17T06:52:19.098Z,71.29
2022-10-17T06:53:19.106Z,70.55
2022-10-17T06:54:19.083Z,71.17
2022-10-17T06:55:22.616Z,66.70
2022-10-17T06:56:19.096Z,69.71
2022-10-17T06:57:19.076Z,66.98
2022-10-17T06:58:19.054Z,70.91
2022-10-17T06:59:19.047Z,66.62
2022-10-17T07:00:19.037Z,65.87
2022-10-17T07:01:19.054Z,70.47
2022-10-17T07:02:19.018Z,63.71
2022-10-17T07:03:19.062Z,61.51
2022-10-17T07:04:19.012Z,65.97
2022-10-17T07:05:18.994Z,72.59
2022-10-17T07:06:19.073Z,71.63
2022-10-17T07:07:18.970Z,69.36
2022-10-17T07:08:19.027Z,68.04
2022-10-17T07:09:19.013Z,66.78
2022-10-17T07:10:18.980Z,71.13
2022-10-17T07:11:18.982Z,69.08
2022-10-17T07:12:18.938Z,68.56
2022-10-17T07:13:18.922Z,70.97
2022-10-17T07:14:18.908Z,68.32
2022-10-17T07:15:18.902Z,69.49
2022-10-17T07:16:18.922Z,67.80
2022-10-17T07:17:19.178Z,67.56
2022-10-17T07:18:18.878Z,69.04
2022-10-17T07:19:18.874Z,69.06
2022-10-17T07:20:18.859Z,66.51
2022-10-17T07:21:19.872Z,68.00
2022-10-17T07:22:18.869Z,64.34
2022-10-17T07:23:18.828Z,67.88
2022-10-17T07:24:18.865Z,67.86
2022-10-17T07:25:18.820Z,66.31
2022-10-17T07:26:18.859Z,69.96
2022-10-17T07:27:18.799Z,68.05
2022-10-17T07:28:18.787Z,69.27
2022-10-17T07:29:18.826Z,66.70
2022-10-17T07:30:18.771Z,68.64
2022-10-17T07:31:18.795Z,68.07
2022-10-17T07:32:18.944Z,67.19
2022-10-17T07:33:18.814Z,60.21
2022-10-17T07:34:18.741Z,65.06
2022-10-17T07:35:18.734Z,69.65
2022-10-17T07:36:18.724Z,64.43
2022-10-17T07:37:18.769Z,64.83
2022-10-17T07:38:18.701Z,69.90
2022-10-17T07:39:18.710Z,68.83
2022-10-17T07:40:18.681Z,67.69
2022-10-17T07:41:20.925Z,64.39
2022-10-17T07:42:18.705Z,67.48
2022-10-17T07:43:18.677Z,70.18
2022-10-17T07:44:18.655Z,69.19
2022-10-17T07:45:18.699Z,65.93
2022-10-17T07:46:18.641Z,70.29
2022-10-17T07:47:18.655Z,68.43
2022-10-17T07:48:18.637Z,70.02
2022-10-17T07:49:18.612Z,66.51
2022-10-17T07:50:18.611Z,64.13
2022-10-17T07:51:18.598Z,68.32
2022-10-17T07:52:18.633Z,69.13
2022-10-17T07:53:18.578Z,65.79
2022-10-17T07:54:18.580Z,68.43
2022-10-17T07:55:18.565Z,64.88
2022-10-17T07:56:18.587Z,66.73
2022-10-17T07:57:18.571Z,65.18
2022-10-17T07:58:18.534Z,68.58
2022-10-17T07:59:18.536Z,67.15
2022-10-17T08:00:18.717Z,66.78
2022-10-17T08:01:18.535Z,67.62
2022-10-17T08:02:18.542Z,65.96
2022-10-17T08:03:18.503Z,67.04
2022-10-17T08:04:18.490Z,69.01
2022-10-17T08:05:19.277Z,64.54
2022-10-17T08:06:18.471Z,65.68
2022-10-17T08:07:22.997Z,68.95
2022-10-17T08:08:20.458Z,69.44
2022-10-17T08:09:18.450Z,67.66
2022-10-17T08:10:18.442Z,64.08
2022-10-17T08:11:18.434Z,63.91
2022-10-17T08:12:18.464Z,70.05
2022-10-17T08:13:18.418Z,68.83
2022-10-17T08:14:18.409Z,63.78
2022-10-17T08:15:18.436Z,62.02
2022-10-17T08:16:18.389Z,65.90
2022-10-17T08:17:18.417Z,65.89
2022-10-17T08:18:18.374Z,66.01
2022-10-17T08:19:18.376Z,65.90
2022-10-17T08:20:18.369Z,62.66
2022-10-17T08:21:18.456Z,70.36
2022-10-17T08:22:18.382Z,64.02
2022-10-17T08:23:18.364Z,70.14
2022-10-17T08:24:18.338Z,68.20
2022-10-17T08:25:18.330Z,67.91
2022-10-17T08:26:18.319Z,64.33
2022-10-17T08:27:18.337Z,64.66
2022-10-17T08:28:18.303Z,70.92
2022-10-17T08:29:18.345Z,67.89
2022-10-17T08:30:18.292Z,66.80
2022-10-17T08:31:18.287Z,66.03
2022-10-17T08:32:18.300Z,62.67
2022-10-17T08:33:18.259Z,65.73
2022-10-17T08:34:18.325Z,62.39
2022-10-17T08:35:18.245Z,63.16
2022-10-17T08:36:18.238Z,70.00
2022-10-17T08:37:18.273Z,67.08
2022-10-17T08:38:20.969Z,68.16
2022-10-17T08:39:19.214Z,66.45
2022-10-17T08:40:18.214Z,66.55
2022-10-17T08:41:18.202Z,68.53
2022-10-17T08:42:18.236Z,69.87
2022-10-17T08:43:18.183Z,66.28
2022-10-17T08:44:18.175Z,66.01
2022-10-17T08:45:18.175Z,68.44
2022-10-17T08:46:18.168Z,61.12
2022-10-17T08:47:18.177Z,68.66
2022-10-17T08:48:18.139Z,65.42
2022-10-17T08:49:18.130Z,66.21
2022-10-17T08:50:18.127Z,69.05
2022-10-17T08:51:18.200Z,69.04
2022-10-17T08:52:18.141Z,67.76
2022-10-17T08:53:18.099Z,57.33
2022-10-17T08:54:18.099Z,68.79
2022-10-17T08:56:19.954Z,68.37
2022-10-17T08:57:20.112Z,64.67
2022-10-17T08:58:18.069Z,63.67
2022-10-17T08:59:18.050Z,68.46
2022-10-17T09:00:18.044Z,62.92
2022-10-17T09:01:18.026Z,62.07
2022-10-17T09:02:19.071Z,64.69
2022-10-17T09:03:18.080Z,66.13
2022-10-17T09:04:18.042Z,69.41
2022-10-17T09:05:20.185Z,67.06
2022-10-17T09:06:17.997Z,65.47
2022-10-17T09:07:18.026Z,68.11
2022-10-17T09:08:17.993Z,68.72
2022-10-17T09:09:17.986Z,69.51
2022-10-17T09:10:17.974Z,67.59
2022-10-17T09:11:17.982Z,63.16
2022-10-17T09:12:17.983Z,64.22
2022-10-17T09:13:17.948Z,68.71
2022-10-17T09:14:18.045Z,66.11
2022-10-17T09:15:17.936Z,67.78
2022-10-17T09:16:17.952Z,66.68
2022-10-17T09:17:17.950Z,69.71
2022-10-17T09:18:21.112Z,62.61
2022-10-17T09:19:17.908Z,62.33
2022-10-17T09:20:17.918Z,62.98
2022-10-17T09:21:17.893Z,67.31
2022-10-17T09:22:17.920Z,66.08
2022-10-17T09:23:17.894Z,61.47
2022-10-17T09:24:17.862Z,64.49
2022-10-17T09:25:17.858Z,69.80
2022-10-17T09:26:17.898Z,67.88
2022-10-17T09:27:17.874Z,62.86
2022-10-17T09:28:17.846Z,64.00
2022-10-17T09:29:17.850Z,68.82
2022-10-17T09:30:40.022Z,67.91
2022-10-17T09:31:18.809Z,66.08
2022-10-17T09:32:17.813Z,58.46
2022-10-17T09:33:28.775Z,62.81
2022-10-17T09:34:21.074Z,66.46
2022-10-17T09:35:17.810Z,64.09
2022-10-17T09:36:17.782Z,63.53
2022-10-17T09:37:17.808Z,62.66
2022-10-17T09:38:17.766Z,68.35
2022-10-17T09:39:17.762Z,67.08
2022-10-17T09:40:17.758Z,62.29
2022-10-17T09:41:42.849Z,63.16
2022-10-17T09:42:19.767Z,66.80
2022-10-17T09:43:17.729Z,66.86
2022-10-17T09:44:17.729Z,64.48
2022-10-17T09:45:17.718Z,65.08
2022-10-17T09:46:17.706Z,66.01
2022-10-17T09:47:17.732Z,68.97
2022-10-17T09:48:17.692Z,63.49
2022-10-17T09:49:17.690Z,66.51
2022-10-17T09:50:17.690Z,66.07
2022-10-17T09:51:25.716Z,70.46
2022-10-17T09:52:19.700Z,64.93
2022-10-17T09:53:17.668Z,63.81
2022-10-17T09:54:17.665Z,64.06
2022-10-17T09:55:17.669Z,69.05
2022-10-17T09:56:17.666Z,65.01
2022-10-17T09:57:17.667Z,65.67
2022-10-17T09:58:17.620Z,67.64
2022-10-17T09:59:17.627Z,61.44
2022-10-17T10:00:17.621Z,65.96
2022-10-17T10:01:21.122Z,69.67
2022-10-17T10:02:19.631Z,60.95
2022-10-17T10:03:17.601Z,65.33
2022-10-17T10:04:17.593Z,69.43
2022-10-17T10:05:17.580Z,65.63
2022-10-17T10:06:17.569Z,59.29
2022-10-17T10:07:17.596Z,63.99
2022-10-17T10:08:17.565Z,63.97
2022-10-17T10:09:17.572Z,67.37
2022-10-17T10:10:17.554Z,62.67
2022-10-17T10:11:17.533Z,63.53
2022-10-17T10:12:17.559Z,65.20
2022-10-17T10:13:17.519Z,67.44
2022-10-17T10:14:17.518Z,64.63
2022-10-17T10:15:17.509Z,62.29
2022-10-17T10:16:17.504Z,64.28
2022-10-17T10:17:17.495Z,57.68
2022-10-17T10:18:17.590Z,67.49
2022-10-17T10:19:17.479Z,67.14
2022-10-17T10:20:17.463Z,64.35
2022-10-17T10:21:17.470Z,62.73
2022-10-17T10:22:17.489Z,65.03
2022-10-17T10:23:17.475Z,67.64
2022-10-17T10:24:17.441Z,63.43
2022-10-17T10:25:17.438Z,67.02
2022-10-17T10:26:20.291Z,64.95
2022-10-17T10:27:18.494Z,66.68
2022-10-17T10:28:17.412Z,65.88
2022-10-17T10:29:17.415Z,66.40
2022-10-17T10:30:17.405Z,61.13
2022-10-17T10:31:17.395Z,66.15
2022-10-17T10:32:17.419Z,63.56
2022-10-17T10:33:17.382Z,66.54
2022-10-17T10:34:17.373Z,67.34
2022-10-17T10:35:17.373Z,62.72
2022-10-17T10:36:17.348Z,65.91
2022-10-17T10:37:17.368Z,65.21
2022-10-17T10:38:18.343Z,63.19
2022-10-17T10:39:17.339Z,62.17
2022-10-17T10:40:17.335Z,69.26
2022-10-17T10:41:17.329Z,68.43
2022-10-17T10:42:17.344Z,64.95
2022-10-17T10:43:17.311Z,60.32
2022-10-17T10:44:17.301Z,66.61
2022-10-17T10:45:29.340Z,68.67
2022-10-17T10:46:19.298Z,63.84
2022-10-17T10:47:17.306Z,63.27
2022-10-17T10:48:17.269Z,66.34
2022-10-17T10:49:17.277Z,65.52
2022-10-17T10:50:17.260Z,68.62
2022-10-17T10:51:17.247Z,66.07
2022-10-17T10:52:17.284Z,66.02
2022-10-17T10:53:17.242Z,65.09
2022-10-17T10:54:17.238Z,66.81
2022-10-17T10:55:17.233Z,61.52
2022-10-17T10:56:17.220Z,58.65
2022-10-17T10:57:17.251Z,68.76
2022-10-17T10:58:17.213Z,64.24
2022-10-17T10:59:17.197Z,68.86
2022-10-17T11:00:17.182Z,67.16
2022-10-17T11:01:17.249Z,63.26
2022-10-17T11:02:17.180Z,66.56
2022-10-17T11:03:17.247Z,66.71
2022-10-17T11:04:17.172Z,65.01
2022-10-17T11:05:17.161Z,62.43
2022-10-17T11:06:17.150Z,63.52
2022-10-17T11:07:17.142Z,60.37
2022-10-17T11:08:17.166Z,68.51
2022-10-17T11:09:17.123Z,66.89
2022-10-17T11:10:17.125Z,62.08
2022-10-17T11:11:17.112Z,58.53
2022-10-17T11:12:17.102Z,66.34
2022-10-17T11:13:17.130Z,67.57
2022-10-17T11:14:17.094Z,66.66
2022-10-17T11:15:17.084Z,68.36
2022-10-17T11:16:17.072Z,65.31
2022-10-17T11:17:17.072Z,66.07
2022-10-17T11:18:17.103Z,61.70
2022-10-17T11:19:17.061Z,65.48
2022-10-17T11:20:17.198Z,65.42
2022-10-17T11:21:17.037Z,68.95
2022-10-17T11:22:17.038Z,62.91
2022-10-17T11:23:17.061Z,63.68
2022-10-17T11:24:17.017Z,64.22
2022-10-17T11:25:17.021Z,66.75
2022-10-17T11:26:17.024Z,66.15
2022-10-17T11:27:17.003Z,68.35
2022-10-17T11:28:17.011Z,67.87
2022-10-17T11:29:17.987Z,61.92
2022-10-17T11:30:16.976Z,63.82
2022-10-17T11:31:16.971Z,65.88
2022-10-17T11:32:16.964Z,66.08
2022-10-17T11:33:16.980Z,65.72
2022-10-17T11:34:16.949Z,66.06
2022-10-17T11:35:16.945Z,68.27
2022-10-17T11:36:16.933Z,66.67
2022-10-17T11:37:16.931Z,68.20
2022-10-17T11:38:16.942Z,65.78
2022-10-17T11:39:16.916Z,58.86
2022-10-17T11:40:19.212Z,67.46
2022-10-17T11:41:18.904Z,64.51
2022-10-17T11:42:16.895Z,67.60
2022-10-17T11:43:16.913Z,62.34
2022-10-17T11:44:16.877Z,61.54
2022-10-17T11:45:16.867Z,67.92
2022-10-17T11:46:16.856Z,67.91
2022-10-17T11:47:16.857Z,64.14
2022-10-17T11:48:16.880Z,68.45
2022-10-17T11:49:20.482Z,64.48
2022-10-17T11:52:31.876Z,65.79
2022-10-17T11:53:18.841Z,67.38
2022-10-17T11:54:16.802Z,61.56
2022-10-17T11:55:16.796Z,66.37
2022-10-17T11:56:16.784Z,66.91
2022-10-17T11:57:16.782Z,69.27
2022-10-17T11:58:16.849Z,63.36
2022-10-17T11:59:16.764Z,62.15
2022-10-17T12:00:16.757Z,67.57
2022-10-17T12:01:16.747Z,65.72
2022-10-17T12:02:16.754Z,69.84
2022-10-17T12:03:16.777Z,66.67
2022-10-17T12:04:16.763Z,65.82
2022-10-17T12:05:16.717Z,63.30
2022-10-17T12:06:16.714Z,67.16
2022-10-17T12:07:16.702Z,66.15
2022-10-17T12:08:16.730Z,65.43
2022-10-17T12:09:16.694Z,64.99
2022-10-17T12:10:16.686Z,67.38
2022-10-17T12:11:16.680Z,66.41
2022-10-17T12:12:16.676Z,66.55
2022-10-17T12:13:16.697Z,66.14
2022-10-17T12:14:16.651Z,66.27
2022-10-17T12:15:16.649Z,68.11
2022-10-17T12:16:17.576Z,65.08
2022-10-17T12:17:17.633Z,63.20
2022-10-17T12:18:16.801Z,64.29
2022-10-17T12:19:16.620Z,69.95
2022-10-17T12:20:16.622Z,69.66
2022-10-17T12:21:16.595Z,65.53
2022-10-17T12:22:16.595Z,67.95
2022-10-17T12:23:16.657Z,65.73
2022-10-17T12:24:18.895Z,69.11
2022-10-17T12:25:17.576Z,65.96
2022-10-17T12:26:16.562Z,67.28
2022-10-17T12:27:16.590Z,63.90
2022-10-17T12:28:16.582Z,65.78
2022-10-17T12:29:16.546Z,67.04
2022-10-17T12:30:16.545Z,69.66
2022-10-17T12:31:16.530Z,66.58
2022-10-17T12:32:16.521Z,64.01
2022-10-17T12:33:16.554Z,65.73
2022-10-17T12:34:16.504Z,65.38
2022-10-17T12:35:16.500Z,66.67
2022-10-17T12:36:16.492Z,70.22
2022-10-17T12:37:16.507Z,66.59
2022-10-17T12:38:16.505Z,67.56
2022-10-17T12:39:16.470Z,65.12
2022-10-17T12:40:16.456Z,64.90
2022-10-17T12:41:16.448Z,68.88
2022-10-17T12:42:16.442Z,66.14
2022-10-17T12:43:16.489Z,64.70
2022-10-17T12:44:16.786Z,63.28
2022-10-17T12:45:16.426Z,69.65
2022-10-17T12:46:16.419Z,69.05
2022-10-17T12:47:16.407Z,65.28
2022-10-17T12:48:16.469Z,65.05
2022-10-17T12:49:16.386Z,67.32
2022-10-17T12:50:16.385Z,66.58
2022-10-17T12:52:18.368Z,64.96
2022-10-17T12:53:18.550Z,64.39
2022-10-17T12:54:16.393Z,65.97
2022-10-17T12:55:16.345Z,68.04
2022-10-17T12:56:16.332Z,66.43
2022-10-17T12:57:16.330Z,68.07
2022-10-17T12:58:16.319Z,67.50